createdAt,value
2023-02-03T00:02:11.307Z,102515.00
2023-02-03T00:04:38.497Z,102513.06
2023-02-03T00:07:12.667Z,102511.38
2023-02-03T00:09:40.364Z,102507.59
2023-02-03T00:12:07.930Z,102498.44
2023-02-03T00:14:35.058Z,102504.16
2023-02-03T00:17:02.791Z,102499.28
2023-02-03T00:19:29.764Z,102492.75
2023-02-03T00:21:59.151Z,102480.66
2023-02-03T00:24:29.349Z,102491.03
2023-02-03T00:26:56.325Z,102487.97
2023-02-03T00:29:25.984Z,102492.88
2023-02-03T00:31:54.329Z,102496.63
2023-02-03T00:34:21.837Z,102502.53
2023-02-03T00:36:48.973Z,102517.59
2023-02-03T00:39:16.485Z,102521.88
2023-02-03T00:41:43.497Z,102524.22
2023-02-03T00:44:10.656Z,102529.13
2023-02-03T00:46:38.168Z,102538.44
2023-02-03T00:49:05.702Z,102551.25
2023-02-03T00:51:34.171Z,102534.28
2023-02-03T00:54:01.219Z,102531.84
2023-02-03T00:56:28.255Z,102542.25
2023-02-03T00:58:55.391Z,102538.84
2023-02-03T01:01:22.490Z,102565.63
2023-02-03T01:03:50.151Z,102563.03
2023-02-03T01:06:20.842Z,102572.22
2023-02-03T01:08:49.191Z,102580.81
2023-02-03T01:11:25.297Z,102590.13
2023-02-03T01:13:54.495Z,102598.16
2023-02-03T01:16:24.073Z,102598.03
2023-02-03T01:18:51.586Z,102587.56
2023-02-03T01:21:24.985Z,102581.66
2023-02-03T01:23:53.463Z,102571.06
2023-02-03T01:26:22.944Z,102568.19
2023-02-03T01:28:59.645Z,102563.38
2023-02-03T01:31:45.945Z,102564.13
2023-02-03T01:34:18.864Z,102584.34
2023-02-03T01:36:46.865Z,102574.94
2023-02-03T01:39:14.265Z,102584.25
2023-02-03T01:41:41.872Z,102587.94
2023-02-03T01:44:41.213Z,102587.84
2023-02-03T01:47:21.405Z,102592.28
2023-02-03T01:50:11.905Z,102599.75
2023-02-03T01:52:45.888Z,102583.09
2023-02-03T01:55:22.872Z,102585.44
2023-02-03T01:57:56.912Z,102583.94
2023-02-03T02:00:24.473Z,102590.09
2023-02-03T02:02:52.852Z,102571.19
2023-02-03T02:06:02.000Z,102593.28
2023-02-03T02:08:36.230Z,102586.03
2023-02-03T02:11:04.286Z,102593.25
2023-02-03T02:13:36.097Z,102573.75
2023-02-03T02:16:21.132Z,102570.44
2023-02-03T02:19:28.539Z,102570.22
2023-02-03T02:22:23.902Z,102567.38
2023-02-03T02:25:32.494Z,102553.78
2023-02-03T02:28:29.266Z,102552.13
2023-02-03T02:31:34.230Z,102548.75
2023-02-03T02:34:25.050Z,102549.94
2023-02-03T02:37:32.038Z,102543.41
2023-02-03T02:40:19.210Z,102542.72
2023-02-03T02:43:05.199Z,102542.88
2023-02-03T02:45:48.898Z,102547.28
2023-02-03T02:48:47.027Z,102538.06
2023-02-03T02:51:16.245Z,102542.97
2023-02-03T02:53:58.916Z,102549.09
2023-02-03T02:56:27.811Z,102553.63
2023-02-03T02:58:58.258Z,102554.00
2023-02-03T03:01:26.306Z,102540.47
2023-02-03T03:03:53.488Z,102534.94
2023-02-03T03:06:29.829Z,102541.84
2023-02-03T03:09:26.065Z,102545.22
2023-02-03T03:12:09.981Z,102540.84
2023-02-03T03:14:39.694Z,102549.09
2023-02-03T03:17:10.847Z,102552.94
2023-02-03T03:19:49.362Z,102546.38
2023-02-03T03:22:17.860Z,102550.22
2023-02-03T03:24:51.093Z,102556.88
2023-02-03T03:27:25.783Z,102562.13
2023-02-03T03:30:06.189Z,102556.22
2023-02-03T03:32:33.809Z,102553.38
2023-02-03T03:35:02.836Z,102545.94
2023-02-03T03:37:44.733Z,102542.91
2023-02-03T03:40:43.613Z,102543.09
2023-02-03T03:43:24.302Z,102551.34
2023-02-03T03:46:17.503Z,102559.53
2023-02-03T03:48:54.554Z,102558.78
2023-02-03T03:51:52.331Z,102557.59
2023-02-03T03:54:22.404Z,102544.13
2023-02-03T03:57:18.082Z,102546.94
2023-02-03T03:59:49.694Z,102534.47
2023-02-03T04:02:19.212Z,102538.00
2023-02-03T04:04:48.321Z,102544.81
2023-02-03T04:07:20.246Z,102548.50
2023-02-03T04:09:47.544Z,102552.03
2023-02-03T04:12:24.185Z,102551.22
2023-02-03T04:14:54.586Z,102539.09
2023-02-03T04:17:21.592Z,102536.84
2023-02-03T04:19:49.418Z,102534.47
2023-02-03T04:22:16.437Z,102537.28
2023-02-03T04:24:43.482Z,102537.84
2023-02-03T04:27:13.824Z,102559.72
2023-02-03T04:29:40.879Z,102561.50
2023-02-03T04:32:07.963Z,102560.94
2023-02-03T04:34:34.981Z,102545.50
2023-02-03T04:37:01.879Z,102534.31
2023-02-03T04:39:29.094Z,102541.81
2023-02-03T04:41:56.078Z,102545.41
2023-02-03T04:44:23.194Z,102550.84
2023-02-03T04:46:50.199Z,102554.91
2023-02-03T04:49:17.731Z,102557.91
2023-02-03T04:51:44.812Z,102555.28
2023-02-03T04:54:12.385Z,102564.69
2023-02-03T04:56:39.393Z,102567.25
2023-02-03T04:59:06.398Z,102563.81
2023-02-03T05:01:33.399Z,102559.47
2023-02-03T05:04:00.869Z,102581.16
2023-02-03T05:06:32.665Z,102575.56
2023-02-03T05:08:59.993Z,102579.47
2023-02-03T05:11:32.386Z,102567.19
2023-02-03T05:13:59.361Z,102569.00
2023-02-03T05:16:26.565Z,102561.00
2023-02-03T05:19:00.700Z,102584.84
2023-02-03T05:21:27.680Z,102585.34
2023-02-03T05:23:54.684Z,102591.16
2023-02-03T05:26:21.817Z,102588.03
2023-02-03T05:28:48.856Z,102573.53
2023-02-03T05:31:16.069Z,102573.03
2023-02-03T05:33:49.007Z,102573.78
2023-02-03T05:36:16.076Z,102570.56
2023-02-03T05:38:43.105Z,102569.31
2023-02-03T05:41:30.743Z,102565.56
2023-02-03T05:43:57.789Z,102585.13
2023-02-03T05:46:24.978Z,102566.50
2023-02-03T05:48:51.945Z,102579.38
2023-02-03T05:51:18.913Z,102564.00
2023-02-03T05:53:45.829Z,102573.00
2023-02-03T05:56:12.761Z,102566.94
2023-02-03T05:58:39.877Z,102591.13
2023-02-03T06:01:06.852Z,102579.34
2023-02-03T06:03:33.814Z,102575.78
2023-02-03T06:06:00.906Z,102598.06
2023-02-03T06:08:28.706Z,102579.53
2023-02-03T06:11:03.001Z,102594.72
2023-02-03T06:13:30.096Z,102588.56
2023-02-03T06:15:57.357Z,102581.28
2023-02-03T06:18:24.398Z,102581.66
2023-02-03T06:20:51.646Z,102578.47
2023-02-03T06:23:19.307Z,102572.03
2023-02-03T06:25:49.846Z,102583.03
2023-02-03T06:28:16.980Z,102589.63
2023-02-03T06:30:44.658Z,102591.16
2023-02-03T06:33:11.710Z,102594.44
2023-02-03T06:35:38.881Z,102584.38
2023-02-03T06:38:05.847Z,102589.19
2023-02-03T06:40:32.778Z,102590.78
2023-02-03T06:42:59.841Z,102588.66
2023-02-03T06:45:26.929Z,102580.09
2023-02-03T06:47:53.969Z,102591.88
2023-02-03T06:50:21.230Z,102579.59
2023-02-03T06:52:50.290Z,102583.78
2023-02-03T06:55:17.404Z,102598.78
2023-02-03T06:57:47.055Z,102605.78
2023-02-03T07:00:18.960Z,102609.25
2023-02-03T07:02:46.846Z,102604.50
2023-02-03T07:05:14.267Z,102601.94
2023-02-03T07:07:41.321Z,102592.25
2023-02-03T07:10:09.146Z,102570.00
2023-02-03T07:12:36.902Z,102577.63
2023-02-03T07:15:05.287Z,102599.28
2023-02-03T07:17:32.453Z,102595.88
2023-02-03T07:19:59.704Z,102602.84
2023-02-03T07:22:26.647Z,102599.03
2023-02-03T07:24:53.661Z,102600.00
2023-02-03T07:27:20.883Z,102606.59
2023-02-03T07:29:47.857Z,102603.78
2023-02-03T07:32:15.170Z,102604.88
2023-02-03T07:34:42.138Z,102597.56
2023-02-03T07:37:09.096Z,102600.59
2023-02-03T07:39:36.088Z,102592.97
2023-02-03T07:42:03.126Z,102571.31
2023-02-03T07:44:30.169Z,102597.63
2023-02-03T07:46:57.609Z,102602.72
2023-02-03T07:49:24.584Z,102622.03
2023-02-03T07:51:51.561Z,102639.59
2023-02-03T07:54:18.554Z,102639.81
2023-02-03T07:56:45.477Z,102636.28
2023-02-03T07:59:12.425Z,102633.66
2023-02-03T08:01:39.344Z,102645.38
2023-02-03T08:04:06.444Z,102658.28
2023-02-03T08:06:33.476Z,102644.22
2023-02-03T08:09:00.478Z,102640.06
2023-02-03T08:11:27.458Z,102643.41
2023-02-03T08:13:54.381Z,102655.72
2023-02-03T08:16:21.467Z,102651.53
2023-02-03T08:18:48.474Z,102651.91
2023-02-03T08:21:15.545Z,102653.97
2023-02-03T08:23:42.460Z,102639.13
2023-02-03T08:26:09.477Z,102642.47
2023-02-03T08:28:36.514Z,102660.06
2023-02-03T08:31:11.447Z,102669.44
2023-02-03T08:33:38.918Z,102673.50
2023-02-03T08:36:06.602Z,102672.66
2023-02-03T08:38:33.822Z,102667.91
2023-02-03T08:41:00.811Z,102663.38
2023-02-03T08:43:27.750Z,102677.69
2023-02-03T08:45:54.791Z,102682.69
2023-02-03T08:48:21.785Z,102670.66
2023-02-03T08:50:52.966Z,102659.09
2023-02-03T08:53:20.366Z,102650.97
2023-02-03T08:55:47.383Z,102669.38
2023-02-03T08:58:14.641Z,102671.75
2023-02-03T09:00:43.092Z,102672.03
2023-02-03T09:03:10.452Z,102688.16
2023-02-03T09:05:37.744Z,102687.69
2023-02-03T09:08:05.045Z,102689.97
2023-02-03T09:10:32.020Z,102697.19
2023-02-03T09:12:58.984Z,102701.84
2023-02-03T09:15:27.048Z,102704.41
2023-02-03T09:17:55.449Z,102709.31
2023-02-03T09:20:23.590Z,102715.97
2023-02-03T09:22:50.947Z,102719.44
2023-02-03T09:25:18.273Z,102725.84
2023-02-03T09:27:45.225Z,102729.66
2023-02-03T09:30:14.518Z,102718.66
2023-02-03T09:32:41.491Z,102707.19
2023-02-03T09:35:08.570Z,102717.88
2023-02-03T09:37:35.499Z,102721.84
2023-02-03T09:40:02.571Z,102736.84
2023-02-03T09:43:00.239Z,102725.22
2023-02-03T09:45:30.636Z,102725.34
2023-02-03T09:48:06.624Z,102727.03
2023-02-03T09:50:35.929Z,102740.56
2023-02-03T09:53:27.795Z,102761.63
2023-02-03T09:55:55.538Z,102760.78
2023-02-03T09:58:23.342Z,102762.28
2023-02-03T10:00:56.495Z,102746.78
2023-02-03T10:03:54.555Z,102756.13
2023-02-03T10:06:33.865Z,102749.00
2023-02-03T10:09:55.792Z,102754.38
2023-02-03T10:12:42.101Z,102758.38
2023-02-03T10:15:46.319Z,102747.25
2023-02-03T10:18:33.919Z,102756.78
2023-02-03T10:21:11.676Z,102753.69
2023-02-03T10:23:43.051Z,102763.81
2023-02-03T10:26:21.398Z,102755.03
2023-02-03T10:29:06.133Z,102755.75
2023-02-03T10:31:36.973Z,102758.28
2023-02-03T10:34:16.437Z,102761.09
2023-02-03T10:36:56.225Z,102753.50
2023-02-03T10:39:52.768Z,102748.25
2023-02-03T10:42:22.215Z,102752.16
2023-02-03T10:44:59.806Z,102748.94
2023-02-03T10:47:39.892Z,102756.41
2023-02-03T10:50:23.797Z,102763.13
2023-02-03T10:52:50.781Z,102762.09
2023-02-03T10:55:26.812Z,102760.72
2023-02-03T10:57:54.770Z,102759.38
2023-02-03T11:00:33.058Z,102753.91
2023-02-03T11:03:21.302Z,102772.78
2023-02-03T11:05:48.502Z,102772.56
2023-02-03T11:08:16.755Z,102766.53
2023-02-03T11:10:44.128Z,102776.13
2023-02-03T11:13:24.593Z,102778.56
2023-02-03T11:16:03.312Z,102785.47
2023-02-03T11:19:03.777Z,102780.72
2023-02-03T11:21:38.202Z,102767.03
2023-02-03T11:24:20.936Z,102771.94
2023-02-03T11:27:06.014Z,102766.13
2023-02-03T11:29:37.107Z,102768.53
2023-02-03T11:32:47.858Z,102767.59
2023-02-03T11:35:30.920Z,102774.59
2023-02-03T11:38:01.351Z,102765.75
2023-02-03T11:40:38.393Z,102768.44
2023-02-03T11:43:26.765Z,102767.44
2023-02-03T11:46:03.962Z,102779.38
2023-02-03T11:48:36.465Z,102782.00
2023-02-03T11:51:18.434Z,102772.59
2023-02-03T11:54:04.125Z,102764.34
2023-02-03T11:56:58.781Z,102777.97
2023-02-03T12:00:03.652Z,102765.94
2023-02-03T12:02:49.633Z,102744.09
2023-02-03T12:05:45.703Z,102755.72
2023-02-03T12:08:52.247Z,102758.94
2023-02-03T12:12:25.142Z,102769.41
2023-02-03T12:15:13.710Z,102773.41
2023-02-03T12:17:49.570Z,102775.16
2023-02-03T12:20:33.487Z,102774.25
2023-02-03T12:23:17.377Z,102782.09
2023-02-03T12:26:09.559Z,102769.09
2023-02-03T12:28:50.573Z,102771.34
2023-02-03T12:32:09.634Z,102768.75
2023-02-03T12:35:05.566Z,102787.63
2023-02-03T12:37:58.832Z,102781.38
2023-02-03T12:40:39.333Z,102776.72
2023-02-03T12:43:21.192Z,102785.69
2023-02-03T12:46:16.943Z,102784.34
2023-02-03T12:49:20.820Z,102781.31
2023-02-03T12:54:52.862Z,102785.16
2023-02-03T12:57:38.489Z,102784.97
2023-02-03T13:00:27.207Z,102783.75
2023-02-03T13:03:14.273Z,102782.81
2023-02-03T13:05:44.220Z,102771.47
2023-02-03T13:08:26.725Z,102773.03
2023-02-03T13:11:24.273Z,102772.81
2023-02-03T13:14:27.330Z,102772.75
2023-02-03T13:17:03.009Z,102767.81
2023-02-03T13:19:40.139Z,102763.28
2023-02-03T13:22:15.634Z,102767.22
2023-02-03T13:25:13.653Z,102766.03
2023-02-03T13:28:16.165Z,102751.47
2023-02-03T13:30:55.118Z,102774.03
2023-02-03T13:34:04.088Z,102782.47
2023-02-03T13:37:22.235Z,102769.75
2023-02-03T13:40:33.097Z,102778.78
2023-02-03T13:43:13.387Z,102775.03
2023-02-03T13:45:58.780Z,102759.09
2023-02-03T13:48:32.085Z,102759.88
2023-02-03T13:51:13.198Z,102762.50
2023-02-03T13:53:43.837Z,102766.94
2023-02-03T13:56:25.224Z,102762.59
2023-02-03T13:59:28.779Z,102768.97
2023-02-03T14:02:21.382Z,102779.81
2023-02-03T14:04:48.421Z,102776.59
2023-02-03T14:07:38.375Z,102785.28
2023-02-03T14:10:14.683Z,102763.94
2023-02-03T14:12:50.514Z,102768.44
2023-02-03T14:15:32.276Z,102770.41
2023-02-03T14:18:26.957Z,102770.22
2023-02-03T14:21:10.975Z,102771.91
2023-02-03T14:23:53.164Z,102780.13
2023-02-03T14:26:33.794Z,102791.22
2023-02-03T14:29:03.044Z,102776.56
2023-02-03T14:31:30.458Z,102788.03
2023-02-03T14:34:09.471Z,102784.34
2023-02-03T14:36:53.061Z,102781.75
2023-02-03T14:39:20.203Z,102783.16
2023-02-03T14:42:02.043Z,102787.50
2023-02-03T14:44:53.702Z,102786.84
2023-02-03T14:48:14.386Z,102794.00
2023-02-03T14:51:30.131Z,102787.75
2023-02-03T14:54:24.677Z,102795.16
2023-02-03T14:57:27.115Z,102805.13
2023-02-03T15:00:05.730Z,102800.00
2023-02-03T15:02:34.688Z,102799.41
2023-02-03T15:05:14.181Z,102791.66
2023-02-03T15:07:49.364Z,102785.03
2023-02-03T15:10:27.344Z,102782.97
2023-02-03T15:12:58.180Z,102782.44
2023-02-03T15:15:28.889Z,102788.81
2023-02-03T15:18:21.324Z,102790.97
2023-02-03T15:20:55.164Z,102796.84
2023-02-03T15:23:31.434Z,102796.47
2023-02-03T15:26:11.943Z,102799.75
2023-02-03T15:28:38.872Z,102805.31
2023-02-03T15:31:18.050Z,102793.13
2023-02-03T15:33:47.669Z,102809.25
2023-02-03T15:36:43.244Z,102810.50
2023-02-03T15:39:56.718Z,102800.31
2023-02-03T15:42:32.767Z,102801.31
2023-02-03T15:45:32.788Z,102808.44
2023-02-03T15:48:12.141Z,102804.84
2023-02-03T15:50:45.841Z,102813.31
2023-02-03T15:53:46.931Z,102810.03
2023-02-03T15:56:56.981Z,102816.31
2023-02-03T15:59:37.155Z,102819.91
2023-02-03T16:02:25.427Z,102823.47
2023-02-03T16:04:55.263Z,102808.56
2023-02-03T16:07:29.486Z,102817.69
2023-02-03T16:10:00.426Z,102832.78
2023-02-03T16:12:34.508Z,102835.91
2023-02-03T16:15:03.280Z,102849.22
2023-02-03T16:17:31.526Z,102844.31
2023-02-03T16:20:14.371Z,102850.28
2023-02-03T16:22:45.263Z,102852.66
2023-02-03T16:25:25.630Z,102852.22
2023-02-03T16:28:37.494Z,102854.44
2023-02-03T16:31:37.424Z,102862.59
2023-02-03T16:34:35.297Z,102857.03
2023-02-03T16:37:30.334Z,102860.06
2023-02-03T16:40:16.024Z,102853.88
2023-02-03T16:43:02.498Z,102853.16
2023-02-03T16:45:47.932Z,102863.19
2023-02-03T16:48:33.487Z,102867.81
2023-02-03T16:51:15.978Z,102864.91
2023-02-03T16:53:45.472Z,102867.59
2023-02-03T16:56:13.577Z,102874.91
2023-02-03T16:58:40.793Z,102866.25
2023-02-03T17:01:09.730Z,102874.72
2023-02-03T17:03:37.907Z,102872.34
2023-02-03T17:06:09.986Z,102876.09
2023-02-03T17:08:39.197Z,102881.56
2023-02-03T17:11:20.295Z,102881.84
2023-02-03T17:13:48.504Z,102894.91
2023-02-03T17:16:23.019Z,102902.00
2023-02-03T17:18:50.499Z,102899.13
2023-02-03T17:21:21.867Z,102901.53
2023-02-03T17:23:49.565Z,102902.47
2023-02-03T17:26:16.882Z,102905.69
2023-02-03T17:28:45.015Z,102901.44
2023-02-03T17:31:18.383Z,102908.41
2023-02-03T17:33:46.498Z,102909.66
2023-02-03T17:36:17.513Z,102912.28
2023-02-03T17:55:20.015Z,102922.66
2023-02-03T17:57:47.024Z,102913.31
2023-02-03T18:00:14.574Z,102930.34
2023-02-03T18:02:43.140Z,102938.47
2023-02-03T18:05:10.641Z,102933.78
2023-02-03T18:07:37.687Z,102938.19
2023-02-03T18:10:05.368Z,102951.00
2023-02-03T18:12:32.420Z,102954.81
2023-02-03T18:14:59.366Z,102958.38
2023-02-03T18:17:26.523Z,102946.28
2023-02-03T18:19:56.218Z,102953.06
2023-02-03T18:22:23.765Z,102955.63
2023-02-03T18:24:51.739Z,102968.00
2023-02-03T18:27:19.780Z,102963.81
2023-02-03T18:29:48.150Z,102972.66
2023-02-03T18:32:17.041Z,102973.69
2023-02-03T18:34:44.101Z,102986.09
2023-02-03T18:37:12.256Z,102981.53
2023-02-03T18:39:39.231Z,102979.19
2023-02-03T18:42:07.300Z,102983.78
2023-02-03T18:44:34.703Z,102992.25
2023-02-03T18:47:07.011Z,102999.41
2023-02-03T18:49:38.320Z,102990.09
2023-02-03T18:52:05.612Z,102998.13
2023-02-03T18:54:33.130Z,103009.84
2023-02-03T18:57:00.853Z,102996.88
2023-02-03T18:59:27.881Z,103014.88
2023-02-03T19:01:54.829Z,103010.56
2023-02-03T19:04:22.568Z,103009.38
2023-02-03T19:06:49.942Z,103019.34
2023-02-03T19:09:19.252Z,103025.19
2023-02-03T19:11:46.532Z,103027.75
2023-02-03T19:14:14.744Z,103028.56
2023-02-03T19:16:41.806Z,103028.38
2023-02-03T19:19:09.146Z,103018.22
2023-02-03T19:21:36.105Z,103021.22
2023-02-03T19:24:03.146Z,103036.53
2023-02-03T19:26:30.142Z,103032.88
2023-02-03T19:28:57.134Z,103036.63
2023-02-03T19:31:24.313Z,103031.03
2023-02-03T19:33:51.647Z,103038.72
2023-02-03T19:36:18.627Z,103036.97
2023-02-03T19:38:45.597Z,103022.19
2023-02-03T19:41:13.027Z,103046.31
2023-02-03T19:43:40.394Z,103035.72
2023-02-03T19:46:08.521Z,103039.03
2023-02-03T19:48:36.070Z,103048.47
2023-02-03T19:51:03.577Z,103037.22
2023-02-03T19:53:30.669Z,103047.22
2023-02-03T19:55:57.749Z,103052.03
2023-02-03T19:58:25.305Z,103058.44
2023-02-03T20:00:52.277Z,103062.00
2023-02-03T20:03:19.929Z,103046.03
2023-02-03T20:05:47.223Z,103057.59
2023-02-03T20:08:15.694Z,103052.53
2023-02-03T20:10:46.791Z,103046.88
2023-02-03T20:13:14.338Z,103059.00
2023-02-03T20:15:41.922Z,103053.34
2023-02-03T20:18:09.057Z,103061.66
2023-02-03T20:20:36.789Z,103060.53
2023-02-03T20:23:03.815Z,103067.19
2023-02-03T20:25:30.830Z,103066.19
2023-02-03T20:27:59.652Z,103059.81
2023-02-03T20:30:26.751Z,103067.88
2023-02-03T20:32:54.749Z,103062.19
2023-02-03T20:35:23.737Z,103063.34
2023-02-03T20:37:51.036Z,103066.19
2023-02-03T20:40:22.528Z,103065.94
2023-02-03T20:42:51.258Z,103059.94
2023-02-03T20:45:21.168Z,103047.84
2023-02-03T20:47:48.217Z,103056.84
2023-02-03T20:50:37.303Z,103057.25
2023-02-03T20:53:18.817Z,103054.34
2023-02-03T20:55:46.839Z,103055.53
2023-02-03T20:58:24.140Z,103050.38
2023-02-03T21:00:51.853Z,103060.84
2023-02-03T21:03:38.977Z,103067.66
2023-02-03T21:06:19.069Z,103050.34
2023-02-03T21:08:48.244Z,103048.84
2023-02-03T21:11:27.405Z,103046.91
2023-02-03T21:13:54.453Z,103053.50
2023-02-03T21:16:34.554Z,103057.81
2023-02-03T21:19:02.916Z,103055.53
2023-02-03T21:21:36.541Z,103066.00
2023-02-03T21:24:20.138Z,103057.16
2023-02-03T21:26:47.132Z,103054.13
2023-02-03T21:29:24.343Z,103051.88
2023-02-03T21:31:53.214Z,103062.03
2023-02-03T21:34:28.395Z,103060.03
2023-02-03T21:36:58.247Z,103054.19
2023-02-03T21:39:30.522Z,103054.50
2023-02-03T21:42:01.300Z,103063.19
2023-02-03T21:44:38.333Z,103058.09
2023-02-03T21:47:19.366Z,103060.63
2023-02-03T21:49:46.306Z,103069.34
2023-02-03T21:52:14.149Z,103073.00
2023-02-03T21:54:44.326Z,103062.69
2023-02-03T21:57:15.798Z,103065.53
2023-02-03T21:59:46.703Z,103063.38
2023-02-03T22:02:56.621Z,103069.66
2023-02-03T22:05:23.623Z,103069.00
2023-02-03T22:07:50.610Z,103074.44
2023-02-03T22:10:17.648Z,103074.69
2023-02-03T22:12:44.587Z,103064.97
2023-02-03T22:15:12.517Z,103069.53
2023-02-03T22:17:39.468Z,103076.00
2023-02-03T22:20:07.090Z,103080.88
2023-02-03T22:22:34.016Z,103078.00
2023-02-03T22:25:00.924Z,103075.19
2023-02-03T22:27:27.860Z,103085.34
2023-02-03T22:29:56.469Z,103088.34
2023-02-03T22:32:23.516Z,103095.13
2023-02-03T22:34:50.519Z,103092.50
2023-02-03T22:37:17.460Z,103086.09
2023-02-03T22:39:44.461Z,103095.88
2023-02-03T22:42:11.446Z,103097.16
2023-02-03T22:44:38.699Z,103107.81
2023-02-03T22:47:06.022Z,103104.94
2023-02-03T22:49:32.939Z,103107.00
2023-02-03T22:51:59.937Z,103105.78
2023-02-03T22:54:26.872Z,103102.28
2023-02-03T22:56:53.832Z,103104.81
2023-02-03T22:59:20.758Z,103111.53
2023-02-03T23:01:47.736Z,103111.25
2023-02-03T23:04:14.913Z,103115.22
2023-02-03T23:06:41.972Z,103100.66
2023-02-03T23:09:08.919Z,103110.63
2023-02-03T23:11:35.977Z,103112.69
2023-02-03T23:14:03.426Z,103109.81
2023-02-03T23:16:30.861Z,103115.63
2023-02-03T23:18:57.882Z,103108.72
2023-02-03T23:21:24.930Z,103105.59
2023-02-03T23:23:51.903Z,103107.47
2023-02-03T23:26:19.019Z,103114.03
2023-02-03T23:28:45.948Z,103113.50
2023-02-03T23:31:15.171Z,103121.28
2023-02-03T23:34:05.421Z,103121.72
2023-02-03T23:36:33.250Z,103114.72
2023-02-03T23:39:00.236Z,103119.06
2023-02-03T23:41:27.181Z,103129.28
2023-02-03T23:43:54.135Z,103127.47
2023-02-03T23:46:21.073Z,103134.31
2023-02-03T23:48:48.008Z,103127.31
2023-02-03T23:51:14.980Z,103131.97
2023-02-03T23:53:41.906Z,103133.47
2023-02-03T23:56:08.881Z,103128.53
2023-02-03T23:58:35.805Z,103124.63
